createdAt,value
2018-05-10T00:02:23.180Z,66.09
2018-05-10T00:04:50.592Z,66.15
2018-05-10T00:07:18.020Z,66.24
2018-05-10T00:09:45.430Z,66.23
2018-05-10T00:12:12.863Z,67.26
2018-05-10T00:14:40.296Z,66.76
2018-05-10T00:17:07.713Z,66.20
2018-05-10T00:19:35.222Z,65.92
2018-05-10T00:22:03.369Z,67.37
2018-05-10T00:24:30.868Z,67.20
2018-05-10T00:26:58.321Z,67.92
2018-05-10T00:29:25.782Z,67.73
2018-05-10T00:31:53.202Z,67.52
2018-05-10T00:34:20.612Z,67.44
2018-05-10T00:36:48.042Z,68.34
2018-05-10T00:39:15.472Z,67.66
2018-05-10T00:41:42.888Z,67.60
2018-05-10T00:44:10.326Z,68.19
2018-05-10T00:46:37.745Z,67.69
2018-05-10T00:49:05.157Z,69.41
2018-05-10T00:51:32.587Z,68.22
2018-05-10T00:53:59.992Z,68.34
2018-05-10T00:56:27.394Z,68.40
2018-05-10T00:58:54.817Z,68.14
2018-05-10T01:01:22.224Z,68.31
2018-05-10T01:03:49.649Z,68.23
2018-05-10T01:06:17.048Z,68.52
2018-05-10T01:08:44.474Z,70.00
2018-05-10T01:11:11.897Z,69.62
2018-05-10T01:13:39.298Z,69.62
2018-05-10T01:16:06.720Z,70.47
2018-05-10T01:18:34.150Z,69.84
2018-05-10T01:21:01.554Z,69.40
2018-05-10T01:23:28.981Z,69.41
2018-05-10T01:25:56.384Z,69.39
2018-05-10T01:28:23.836Z,69.26
2018-05-10T01:30:51.249Z,69.49
2018-05-10T01:33:18.679Z,71.01
2018-05-10T01:35:57.787Z,69.85
2018-05-10T01:38:25.224Z,69.85
2018-05-10T01:40:52.660Z,70.00
2018-05-10T01:43:20.055Z,70.53
2018-05-10T01:45:47.487Z,70.09
2018-05-10T01:48:14.902Z,70.21
2018-05-10T01:50:42.308Z,71.57
2018-05-10T01:53:09.741Z,70.43
2018-05-10T01:55:37.143Z,70.16
2018-05-10T01:58:04.570Z,70.29
2018-05-10T02:00:31.987Z,70.96
2018-05-10T02:02:59.408Z,70.79
2018-05-10T02:05:26.824Z,70.44
2018-05-10T02:07:54.257Z,70.65
2018-05-10T02:10:21.666Z,70.46
2018-05-10T02:12:49.084Z,70.73
2018-05-10T02:15:16.505Z,70.46
2018-05-10T02:17:43.902Z,70.49
2018-05-10T02:20:11.327Z,70.55
2018-05-10T02:22:38.767Z,70.99
2018-05-10T02:25:06.176Z,71.21
2018-05-10T02:27:33.584Z,70.42
2018-05-10T02:30:01.009Z,70.00
2018-05-10T02:32:28.414Z,70.37
2018-05-10T02:34:55.853Z,69.93
2018-05-10T02:37:23.271Z,70.36
2018-05-10T02:39:50.698Z,70.11
2018-05-10T02:42:18.108Z,70.01
2018-05-10T02:44:45.543Z,70.23
2018-05-10T02:47:12.954Z,69.97
2018-05-10T02:49:40.369Z,69.94
2018-05-10T02:52:07.791Z,69.62
2018-05-10T02:54:35.204Z,69.90
2018-05-10T02:57:02.615Z,69.89
2018-05-10T02:59:30.052Z,70.17
2018-05-10T03:01:57.452Z,69.99
2018-05-10T03:04:24.852Z,71.45
2018-05-10T03:06:52.276Z,70.75
2018-05-10T03:09:19.681Z,70.68
2018-05-10T03:11:47.112Z,70.23
2018-05-10T03:14:14.516Z,70.49
2018-05-10T03:16:41.919Z,71.30
2018-05-10T03:19:09.344Z,70.58
2018-05-10T03:21:36.789Z,70.59
2018-05-10T03:24:04.228Z,70.43
2018-05-10T03:26:31.651Z,70.27
2018-05-10T03:28:59.064Z,70.46
2018-05-10T03:31:26.498Z,70.04
2018-05-10T03:33:53.907Z,70.72
2018-05-10T03:36:21.306Z,70.06
2018-05-10T03:38:48.726Z,70.06
2018-05-10T03:41:16.179Z,71.12
2018-05-10T03:43:43.575Z,70.88
2018-05-10T03:46:10.991Z,70.77
2018-05-10T03:48:38.392Z,70.42
2018-05-10T03:51:05.815Z,71.01
2018-05-10T03:53:33.212Z,70.05
2018-05-10T03:56:00.616Z,69.87
2018-05-10T03:58:28.039Z,70.04
2018-05-10T04:00:55.448Z,69.58
2018-05-10T04:06:35.295Z,69.41
2018-05-10T04:09:14.644Z,68.99
2018-05-10T04:11:42.049Z,68.79
2018-05-10T04:14:09.714Z,68.47
2018-05-10T04:16:37.115Z,68.44
2018-05-10T04:19:04.520Z,68.35
2018-05-10T04:21:31.952Z,68.35
2018-05-10T04:23:59.358Z,68.09
2018-05-10T04:26:26.789Z,68.35
2018-05-10T04:28:54.205Z,67.32
2018-05-10T04:31:21.634Z,66.10
2018-05-10T04:33:49.058Z,65.67
2018-05-10T04:36:16.467Z,64.59
2018-05-10T04:38:43.880Z,63.31
2018-05-10T04:41:11.284Z,61.83
2018-05-10T04:43:38.704Z,61.18
2018-05-10T04:46:06.126Z,59.59
2018-05-10T04:48:33.553Z,58.93
2018-05-10T04:51:00.951Z,58.15
2018-05-10T04:53:28.355Z,57.63
2018-05-10T04:55:55.775Z,57.38
2018-05-10T04:58:23.175Z,57.72
2018-05-10T05:00:50.599Z,56.20
2018-05-10T05:03:18.036Z,56.11
2018-05-10T05:05:45.825Z,55.18
2018-05-10T05:08:13.228Z,54.46
2018-05-10T05:10:40.664Z,55.06
2018-05-10T05:13:08.331Z,54.77
2018-05-10T05:15:35.736Z,54.18
2018-05-10T05:18:03.142Z,52.88
2018-05-10T05:20:30.565Z,52.84
2018-05-10T05:22:57.980Z,52.87
2018-05-10T05:25:25.395Z,52.08
2018-05-10T05:27:52.799Z,52.75
2018-05-10T05:30:20.224Z,51.70
2018-05-10T05:32:47.652Z,52.27
2018-05-10T05:35:15.032Z,52.56
2018-05-10T05:37:42.452Z,52.28
2018-05-10T05:40:09.863Z,52.59
2018-05-10T05:42:37.279Z,53.30
2018-05-10T05:45:04.683Z,53.21
2018-05-10T05:47:32.105Z,53.78
2018-05-10T05:49:59.508Z,53.44
2018-05-10T05:52:27.021Z,52.93
2018-05-10T05:54:54.451Z,52.54
2018-05-10T05:57:21.824Z,51.88
2018-05-10T05:59:49.242Z,51.69
2018-05-10T06:02:16.660Z,51.22
2018-05-10T06:04:44.072Z,50.33
2018-05-10T06:07:11.476Z,49.43
2018-05-10T06:09:38.885Z,48.86
2018-05-10T06:12:06.304Z,48.74
2018-05-10T06:14:33.710Z,48.68
2018-05-10T06:17:01.176Z,48.72
2018-05-10T06:19:28.531Z,49.27
2018-05-10T06:21:55.948Z,49.32
2018-05-10T06:24:23.360Z,50.45
2018-05-10T06:26:50.775Z,51.19
2018-05-10T06:29:18.181Z,51.78
2018-05-10T06:31:45.596Z,52.59
2018-05-10T06:34:13.009Z,53.68
2018-05-10T06:36:40.406Z,54.92
2018-05-10T06:39:07.843Z,55.40
2018-05-10T06:41:35.276Z,56.75
2018-05-10T06:44:02.667Z,56.91
2018-05-10T06:46:30.097Z,57.00
2018-05-10T06:48:57.514Z,57.64
2018-05-10T06:51:24.920Z,58.48
2018-05-10T06:53:52.344Z,59.31
2018-05-10T06:56:19.743Z,59.60
2018-05-10T06:58:47.152Z,60.41
2018-05-10T07:01:14.564Z,60.69
2018-05-10T07:03:41.986Z,60.55
2018-05-10T07:06:09.413Z,61.38
2018-05-10T07:08:36.821Z,61.81
2018-05-10T07:11:04.224Z,62.33
2018-05-10T07:13:31.645Z,61.40
2018-05-10T07:15:59.047Z,62.17
2018-05-10T07:18:26.467Z,63.21
2018-05-10T07:20:53.874Z,61.63
2018-05-10T07:23:21.291Z,61.86
2018-05-10T07:25:48.699Z,62.13
2018-05-10T07:28:16.132Z,61.92
2018-05-10T07:30:43.536Z,62.16
2018-05-10T07:33:10.951Z,62.48
2018-05-10T07:35:38.358Z,61.67
2018-05-10T07:38:05.759Z,61.28
2018-05-10T07:40:33.184Z,60.95
2018-05-10T07:43:00.595Z,59.73
2018-05-10T07:45:28.024Z,59.02
2018-05-10T07:47:55.426Z,57.76
2018-05-10T07:50:22.845Z,55.58
2018-05-10T07:52:50.252Z,54.01
2018-05-10T07:55:17.672Z,52.80
2018-05-10T07:57:45.080Z,51.31
2018-05-10T08:00:12.489Z,51.46
2018-05-10T08:02:40.189Z,50.60
2018-05-10T08:05:07.598Z,50.63
2018-05-10T08:07:35.001Z,49.46
2018-05-10T08:10:02.508Z,49.31
2018-05-10T08:12:30.264Z,50.02
2018-05-10T08:14:57.664Z,49.90
2018-05-10T08:17:25.078Z,50.15
2018-05-10T08:19:52.494Z,49.47
2018-05-10T08:22:19.914Z,49.30
2018-05-10T08:24:47.349Z,49.77
2018-05-10T08:27:14.751Z,49.33
2018-05-10T08:29:48.869Z,48.79
2018-05-10T08:32:16.281Z,48.12
2018-05-10T08:34:43.699Z,46.28
2018-05-10T08:37:11.104Z,46.86
2018-05-10T08:39:38.517Z,46.28
2018-05-10T08:42:05.932Z,47.49
2018-05-10T08:44:33.335Z,47.30
2018-05-10T08:47:00.755Z,47.47
2018-05-10T08:49:28.169Z,47.18
2018-05-10T08:51:55.660Z,46.74
2018-05-10T08:54:23.045Z,45.71
2018-05-10T08:56:50.471Z,45.66
2018-05-10T08:59:17.871Z,45.30
2018-05-10T09:01:45.292Z,46.24
2018-05-10T09:04:12.719Z,46.68
2018-05-10T09:06:40.125Z,46.66
2018-05-10T09:09:07.544Z,46.60
2018-05-10T09:11:34.972Z,47.80
2018-05-10T09:14:02.391Z,47.89
2018-05-10T09:16:29.843Z,47.81
2018-05-10T09:18:57.265Z,47.33
2018-05-10T09:21:24.669Z,48.20
2018-05-10T09:23:52.116Z,48.77
2018-05-10T09:29:02.775Z,48.98
2018-05-10T09:31:30.214Z,49.78
2018-05-10T09:33:57.684Z,50.81
2018-05-10T09:36:25.428Z,50.74
2018-05-10T09:38:52.836Z,51.63
2018-05-10T09:41:20.243Z,52.39
2018-05-10T09:43:47.663Z,52.47
2018-05-10T09:46:15.551Z,52.63
2018-05-10T09:48:43.089Z,52.82
2018-05-10T09:51:10.832Z,53.01
2018-05-10T09:53:38.268Z,54.49
2018-05-10T09:56:05.676Z,54.95
2018-05-10T09:58:33.140Z,55.22
2018-05-10T10:01:00.717Z,55.27
2018-05-10T10:03:28.388Z,55.46
2018-05-10T10:05:55.908Z,55.77
2018-05-10T10:08:23.624Z,53.90
2018-05-10T10:10:51.061Z,54.27
2018-05-10T10:13:18.465Z,53.29
2018-05-10T10:15:45.911Z,52.18
2018-05-10T10:18:13.315Z,51.23
2018-05-10T10:20:40.784Z,50.56
2018-05-10T10:23:08.189Z,49.94
2018-05-10T10:25:35.606Z,50.21
2018-05-10T10:28:03.499Z,49.28
2018-05-10T10:30:31.026Z,49.57
2018-05-10T10:32:58.622Z,48.56
2018-05-10T10:35:26.046Z,48.21
2018-05-10T10:37:53.605Z,47.43
2018-05-10T10:40:21.055Z,47.64
2018-05-10T10:42:48.468Z,48.17
2018-05-10T10:45:15.972Z,48.32
2018-05-10T10:47:43.608Z,48.66
2018-05-10T10:50:11.056Z,48.35
2018-05-10T10:52:38.461Z,49.00
2018-05-10T10:55:06.149Z,49.58
2018-05-10T10:57:33.575Z,49.97
2018-05-10T11:00:01.058Z,49.75
2018-05-10T11:02:28.409Z,49.73
2018-05-10T11:04:56.159Z,51.03
2018-05-10T11:07:23.600Z,53.08
2018-05-10T11:09:51.009Z,55.79
2018-05-10T11:12:18.812Z,56.36
2018-05-10T11:14:46.465Z,57.98
2018-05-10T11:17:13.940Z,58.79
2018-05-10T11:19:41.726Z,57.66
2018-05-10T11:22:09.137Z,56.83
2018-05-10T11:24:36.542Z,57.75
2018-05-10T11:27:03.972Z,57.81
2018-05-10T11:29:31.460Z,57.53
2018-05-10T11:31:58.801Z,57.40
2018-05-10T11:34:26.215Z,57.48
2018-05-10T11:36:53.921Z,57.47
2018-05-10T11:39:21.958Z,56.40
2018-05-10T11:41:49.513Z,55.75
2018-05-10T11:44:16.908Z,54.85
2018-05-10T11:46:44.436Z,54.73
2018-05-10T11:49:11.840Z,54.14
2018-05-10T11:51:39.573Z,56.99
2018-05-10T11:54:06.972Z,56.83
2018-05-10T11:56:34.383Z,56.90
2018-05-10T11:59:01.805Z,58.00
2018-05-10T12:01:29.224Z,58.07
2018-05-10T12:03:56.707Z,58.25
2018-05-10T12:06:24.275Z,58.75
2018-05-10T12:08:51.703Z,59.07
2018-05-10T12:11:19.496Z,58.86
2018-05-10T12:13:46.933Z,58.60
2018-05-10T12:16:14.353Z,58.58
2018-05-10T12:18:41.785Z,58.70
2018-05-10T12:21:09.181Z,58.33
2018-05-10T12:23:36.607Z,59.50
2018-05-10T12:26:04.007Z,59.63
2018-05-10T12:28:31.463Z,59.29
2018-05-10T12:30:58.962Z,59.64
2018-05-10T12:33:26.316Z,59.07
2018-05-10T12:35:53.763Z,59.17
2018-05-10T12:38:21.178Z,59.75
2018-05-10T12:40:48.581Z,60.38
2018-05-10T12:43:15.999Z,60.50
2018-05-10T12:45:43.425Z,60.35
2018-05-10T12:48:10.844Z,60.36
2018-05-10T12:50:38.251Z,60.68
2018-05-10T12:53:05.678Z,60.75
2018-05-10T12:55:33.088Z,60.46
2018-05-10T12:58:00.779Z,60.52
2018-05-10T13:00:28.193Z,60.78
2018-05-10T13:02:55.667Z,59.89
2018-05-10T13:05:23.025Z,60.69
2018-05-10T13:07:50.432Z,60.30
2018-05-10T13:10:17.860Z,61.01
2018-05-10T13:12:45.268Z,60.72
2018-05-10T13:15:12.692Z,60.60
2018-05-10T13:17:40.100Z,60.84
2018-05-10T13:20:07.531Z,61.17
2018-05-10T13:22:34.953Z,60.81
2018-05-10T13:25:02.692Z,60.63
2018-05-10T13:27:30.100Z,60.49
2018-05-10T13:29:57.507Z,60.17
2018-05-10T13:32:24.935Z,60.79
2018-05-10T13:34:52.348Z,60.65
2018-05-10T13:37:20.070Z,61.45
2018-05-10T13:39:47.473Z,61.73
2018-05-10T13:42:14.876Z,61.00
2018-05-10T13:44:42.307Z,60.69
2018-05-10T13:47:09.824Z,60.88
2018-05-10T13:49:37.141Z,60.76
2018-05-10T13:52:04.563Z,60.82
2018-05-10T13:54:31.984Z,60.08
2018-05-10T13:56:59.401Z,59.78
2018-05-10T13:59:26.810Z,58.40
2018-05-10T14:01:54.232Z,57.84
2018-05-10T14:04:21.641Z,58.25
2018-05-10T14:06:49.072Z,58.60
2018-05-10T14:09:16.478Z,58.30
2018-05-10T14:11:43.914Z,57.80
2018-05-10T14:14:11.320Z,57.43
2018-05-10T14:16:38.779Z,57.78
2018-05-10T14:19:06.270Z,57.76
2018-05-10T14:21:33.681Z,58.18
2018-05-10T14:24:01.104Z,57.34
2018-05-10T14:26:28.521Z,56.43
2018-05-10T14:28:55.952Z,56.24
2018-05-10T14:31:23.357Z,56.24
2018-05-10T14:33:50.776Z,55.88
2018-05-10T14:36:18.183Z,55.80
2018-05-10T14:38:45.594Z,55.73
2018-05-10T14:41:13.025Z,55.08
2018-05-10T14:43:40.433Z,54.28
2018-05-10T14:46:07.913Z,54.21
2018-05-10T14:48:35.352Z,53.30
2018-05-10T14:51:02.987Z,52.03
2018-05-10T14:53:30.977Z,51.76
2018-05-10T14:55:58.384Z,52.00
2018-05-10T14:58:26.115Z,51.66
2018-05-10T15:00:53.520Z,49.90
2018-05-10T15:03:20.925Z,50.18
2018-05-10T15:05:48.349Z,50.20
2018-05-10T15:08:15.752Z,49.79
2018-05-10T15:10:43.291Z,49.69
2018-05-10T15:13:10.688Z,48.56
2018-05-10T15:15:38.141Z,47.87
2018-05-10T15:18:05.524Z,48.52
2018-05-10T15:20:32.951Z,48.46
2018-05-10T15:23:00.357Z,48.82
2018-05-10T15:25:28.192Z,49.18
2018-05-10T15:27:55.612Z,49.33
2018-05-10T15:30:23.081Z,49.42
2018-05-10T15:32:51.728Z,49.56
2018-05-10T15:35:19.208Z,50.47
2018-05-10T15:37:46.633Z,50.31
2018-05-10T15:40:14.045Z,51.50
2018-05-10T15:42:41.925Z,52.66
2018-05-10T15:45:09.401Z,53.70
2018-05-10T15:47:36.828Z,54.61
2018-05-10T15:50:04.260Z,54.67
2018-05-10T15:52:31.669Z,54.95
2018-05-10T15:54:59.107Z,55.01
2018-05-10T15:57:26.883Z,55.02
2018-05-10T15:59:54.627Z,55.93
2018-05-10T16:02:22.247Z,57.13
2018-05-10T16:04:49.673Z,56.80
2018-05-10T16:07:17.100Z,55.99
2018-05-10T16:09:44.510Z,56.85
2018-05-10T16:12:12.297Z,57.62
2018-05-10T16:14:39.879Z,57.26
2018-05-10T16:17:07.341Z,56.89
2018-05-10T16:19:35.096Z,57.06
2018-05-10T16:22:03.147Z,57.67
2018-05-10T16:24:30.556Z,57.19
2018-05-10T16:26:58.003Z,56.93
2018-05-10T16:29:25.866Z,57.08
2018-05-10T16:31:53.301Z,57.47
2018-05-10T16:34:20.748Z,57.39
2018-05-10T16:36:48.199Z,57.42
2018-05-10T16:39:15.637Z,57.13
2018-05-10T16:41:43.100Z,57.28
2018-05-10T16:44:10.512Z,57.26
2018-05-10T16:46:37.940Z,57.25
2018-05-10T16:49:05.362Z,57.13
2018-05-10T16:51:32.776Z,57.17
2018-05-10T16:54:00.224Z,57.77
2018-05-10T16:56:27.803Z,57.32
2018-05-10T16:58:55.506Z,57.60
2018-05-10T17:01:22.909Z,57.29
2018-05-10T17:03:50.339Z,57.11
2018-05-10T17:06:17.764Z,57.25
2018-05-10T17:08:45.192Z,57.14
2018-05-10T17:11:12.864Z,57.43
2018-05-10T17:13:40.288Z,57.81
2018-05-10T17:16:07.720Z,57.58
2018-05-10T17:18:35.339Z,57.52
2018-05-10T17:21:03.703Z,57.61
2018-05-10T17:23:32.081Z,57.81
2018-05-10T17:25:59.624Z,58.65
2018-05-10T17:28:27.055Z,58.55
2018-05-10T17:30:54.586Z,59.16
2018-05-10T17:33:21.871Z,59.07
2018-05-10T17:35:49.515Z,59.19
2018-05-10T17:38:16.928Z,60.02
2018-05-10T17:40:44.361Z,60.16
2018-05-10T17:43:11.981Z,60.86
2018-05-10T17:45:39.586Z,60.88
2018-05-10T17:48:07.109Z,60.96
2018-05-10T17:50:34.457Z,61.01
2018-05-10T17:53:01.885Z,61.18
2018-05-10T17:55:29.288Z,61.06
2018-05-10T17:57:56.740Z,61.69
2018-05-10T18:00:24.148Z,62.88
2018-05-10T18:02:51.607Z,62.28
2018-05-10T18:05:19.033Z,62.22
2018-05-10T18:07:46.455Z,62.68
2018-05-10T18:10:13.873Z,63.32
2018-05-10T18:12:41.293Z,63.18
2018-05-10T18:15:08.968Z,63.37
2018-05-10T18:17:36.596Z,63.40
2018-05-10T18:20:04.005Z,63.41
2018-05-10T18:22:31.440Z,63.28
2018-05-10T18:24:58.852Z,63.83
2018-05-10T18:27:26.284Z,63.67
2018-05-10T18:29:53.746Z,63.68
2018-05-10T18:32:21.334Z,63.88
2018-05-10T18:34:48.740Z,63.40
2018-05-10T18:37:16.310Z,64.48
2018-05-10T18:39:43.723Z,64.29
2018-05-10T18:42:11.131Z,64.73
2018-05-10T18:44:38.928Z,64.84
2018-05-10T18:47:06.371Z,64.54
2018-05-10T18:49:33.772Z,65.40
2018-05-10T18:52:01.198Z,65.37
2018-05-10T18:54:28.696Z,65.33
2018-05-10T18:56:56.152Z,65.94
2018-05-10T18:59:23.784Z,66.21
2018-05-10T19:01:51.295Z,66.67
2018-05-10T19:04:18.643Z,67.43
2018-05-10T19:06:46.064Z,67.59
2018-05-10T19:09:13.516Z,68.32
2018-05-10T19:11:40.930Z,69.16
2018-05-10T19:14:08.392Z,69.47
2018-05-10T19:16:35.801Z,69.17
2018-05-10T19:19:03.219Z,68.74
2018-05-10T19:21:30.632Z,68.62
2018-05-10T19:23:58.345Z,68.33
2018-05-10T19:26:25.933Z,68.42
2018-05-10T19:28:53.375Z,68.16
2018-05-10T19:31:21.486Z,68.70
2018-05-10T19:33:48.947Z,68.86
2018-05-10T19:36:16.428Z,68.77
2018-05-10T19:38:43.844Z,68.82
2018-05-10T19:41:11.311Z,68.24
2018-05-10T19:43:38.723Z,67.85
2018-05-10T19:46:06.162Z,68.40
2018-05-10T19:48:33.733Z,68.38
2018-05-10T19:51:01.128Z,68.92
2018-05-10T19:53:28.575Z,69.26
2018-05-10T19:55:56.014Z,68.69
2018-05-10T19:58:23.482Z,68.82
2018-05-10T20:00:50.888Z,69.03
2018-05-10T20:03:19.940Z,68.52
2018-05-10T20:05:47.425Z,68.85
2018-05-10T20:08:14.909Z,68.57
2018-05-10T20:10:42.380Z,68.68
2018-05-10T20:13:09.836Z,69.16
2018-05-10T20:15:37.945Z,69.29
2018-05-10T20:18:05.383Z,69.55
2018-05-10T20:20:36.917Z,69.03
2018-05-10T20:23:10.463Z,69.19
2018-05-10T20:25:38.398Z,69.64
2018-05-10T20:28:06.690Z,69.63
2018-05-10T20:30:35.085Z,70.16
2018-05-10T20:33:04.331Z,70.74
2018-05-10T20:35:31.757Z,70.64
2018-05-10T20:37:59.185Z,69.87
2018-05-10T20:40:26.631Z,69.73
2018-05-10T20:42:54.109Z,70.19
2018-05-10T20:45:21.529Z,70.00
2018-05-10T20:47:48.954Z,70.42
2018-05-10T20:50:16.356Z,69.73
2018-05-10T20:52:43.793Z,70.00
2018-05-10T20:55:11.584Z,70.18
2018-05-10T20:57:38.876Z,70.35
2018-05-10T21:00:06.308Z,70.01
2018-05-10T21:02:33.711Z,70.58
2018-05-10T21:05:01.145Z,70.61
2018-05-10T21:07:28.548Z,70.57
2018-05-10T21:09:56.051Z,70.58
2018-05-10T21:12:35.288Z,70.48
2018-05-10T21:15:02.732Z,70.20
2018-05-10T21:17:30.143Z,70.29
2018-05-10T21:19:57.547Z,70.63
2018-05-10T21:22:24.975Z,70.83
2018-05-10T21:24:52.392Z,70.31
2018-05-10T21:27:19.813Z,70.53
2018-05-10T21:29:47.223Z,70.35
2018-05-10T21:32:14.656Z,71.05
2018-05-10T21:34:42.068Z,71.07
2018-05-10T21:37:09.495Z,70.74
2018-05-10T21:39:36.924Z,70.54
2018-05-10T21:42:04.332Z,70.67
2018-05-10T21:44:31.762Z,70.72
2018-05-10T21:46:59.170Z,70.81
2018-05-10T21:49:38.340Z,70.88
2018-05-10T21:52:05.743Z,71.03
2018-05-10T21:54:33.173Z,71.50
2018-05-10T21:57:00.578Z,71.26
2018-05-10T21:59:27.988Z,71.66
2018-05-10T22:01:55.413Z,71.53
2018-05-10T22:04:22.835Z,72.19
2018-05-10T22:06:50.259Z,71.87
2018-05-10T22:09:17.710Z,71.95
2018-05-10T22:11:45.112Z,72.77
2018-05-10T22:14:12.540Z,72.77
2018-05-10T22:16:39.955Z,72.97
2018-05-10T22:19:07.376Z,73.23
2018-05-10T22:21:34.805Z,73.58
2018-05-10T22:24:02.213Z,73.78
2018-05-10T22:26:29.670Z,73.35
2018-05-10T22:28:57.072Z,73.37
2018-05-10T22:31:24.502Z,73.56
2018-05-10T22:33:51.911Z,73.42
2018-05-10T22:36:19.337Z,74.07
2018-05-10T22:38:46.755Z,73.90
2018-05-10T22:41:14.181Z,74.36
2018-05-10T22:43:41.588Z,74.10
2018-05-10T22:46:09.000Z,75.27
2018-05-10T22:48:36.436Z,76.48
2018-05-10T22:51:03.839Z,77.69
2018-05-10T22:53:31.264Z,78.96
2018-05-10T22:55:58.692Z,78.98
2018-05-10T22:58:26.088Z,79.39
2018-05-10T23:00:53.520Z,80.08
2018-05-10T23:03:20.930Z,80.51
2018-05-10T23:05:48.356Z,80.55
2018-05-10T23:08:15.769Z,80.62
2018-05-10T23:10:43.198Z,81.12
2018-05-10T23:13:10.604Z,80.99
2018-05-10T23:15:38.013Z,81.24
2018-05-10T23:18:05.435Z,82.29
2018-05-10T23:20:32.844Z,81.38
2018-05-10T23:23:00.260Z,81.66
2018-05-10T23:25:27.666Z,81.54
2018-05-10T23:27:55.091Z,81.96
2018-05-10T23:30:22.496Z,81.85
2018-05-10T23:32:50.249Z,81.90
2018-05-10T23:35:17.657Z,82.30
2018-05-10T23:37:45.068Z,82.15
2018-05-10T23:40:12.488Z,82.52
2018-05-10T23:42:39.908Z,81.12
2018-05-10T23:45:07.333Z,81.44
2018-05-10T23:47:34.743Z,81.10
2018-05-10T23:50:02.459Z,81.37
2018-05-10T23:52:29.861Z,81.17
2018-05-10T23:54:57.268Z,80.82
2018-05-10T23:57:24.701Z,81.18
2018-05-10T23:59:52.116Z,81.06
